KSAT

San Antonio International Airport

San Antonio, Texas, USA
METAR KSAT 230451Z 33003KT 10SM -RA OVC130 12/11 A3019 RMK AO2 SLP213 P0001 T01220106
Observed Flight Rules
Oct-23 @ 04:51 UTC (27 minutes ago) Visual Flight Rules
Wind Visibility Clouds Conditions
330° at 3 knots 10 miles
  • Overcast at 13,000' AGL
  • Light Rain
Temperatures Readings Precipitation
Current 12°C / 54°F
Dewpoint 11°C / 52°F
Humidity 94%
Altimeter 30.19" Hg
Pressure 1021.3 hPa
Elevation 243
Current Rain 0.01
METAR KSAT 230451Z 33003KT 10SM -RA OVC130 12/11 A3019 RMK AO2 SLP213 P0001 T01220106
Observed Flight Rules
Oct-23 @ 04:51 UTC
(27 minutes ago)
VFR
Wind Visibility
330° at 3 knots 10 miles
Clouds
  • Overcast at 13,000' AGL
Conditions
  • Light Rain
Temperature Dewpoint
12°C / 54°F 11°C / 52°F
Humidity Altimeter Pressure
94% 30.19" Hg 1021.3 hPa
Current Rain
0.01